Time;durP1;ratioP1;P1;durP2;ratioP2;P2;SDS_P1;SDS_P2;PMS_P1;PMS_P2;Temp;Humidity;BMP_temperature;BMP_pressure;BME280_temperature;BME280_humidity;BME280_pressure;Samples;Min_cycle;Max_cycle;Signal;HPM_P1;HPM_P2
2023/01/08 00:01:42;;;;;;;2.53;2.33;;;7.40;58.60;;;;;;5071738;28;20249;-78
2023/01/08 00:04:08;;;;;;;2.83;2.23;;;7.50;36.60;;;;;;5067856;28;20622;-80
2023/01/08 00:06:33;;;;;;;3.27;2.40;;;7.70;99.90;;;;;;5068491;28;20215;-77
2023/01/08 00:08:59;;;;;;;3.00;2.23;;;7.40;99.90;;;;;;5068937;28;20174;-79
2023/01/08 00:11:25;;;;;;;2.40;2.20;;;7.50;38.70;;;;;;5071662;28;20257;-78
2023/01/08 00:13:50;;;;;;;2.50;2.30;;;7.50;45.50;;;;;;5072424;28;20181;-77
2023/01/08 00:16:17;;;;;;;2.63;2.13;;;7.60;43.70;;;;;;5072306;28;20198;-79
2023/01/08 00:18:44;;;;;;;2.50;2.30;;;7.60;42.20;;;;;;5071284;28;20729;-78
2023/01/08 00:21:10;;;;;;;2.43;2.10;;;7.60;40.20;;;;;;5072723;28;20200;-79
2023/01/08 00:23:36;;;;;;;2.50;2.30;;;7.50;42.80;;;;;;5070473;28;20193;-79
2023/01/08 00:26:07;;;;;;;3.00;2.53;;;7.50;47.90;;;;;;5071619;28;20201;-79
2023/01/08 00:28:34;;;;;;;3.93;2.60;;;7.80;54.90;;;;;;5069604;28;20266;-78
2023/01/08 00:31:06;;;;;;;2.50;2.30;;;7.40;69.10;;;;;;5070974;28;20216;-79
2023/01/08 00:33:32;;;;;;;2.50;2.20;;;7.50;62.30;;;;;;5079331;28;20190;-78
2023/01/08 00:35:57;;;;;;;2.50;2.30;;;7.60;99.90;;;;;;5070745;28;20212;-78
2023/01/08 00:38:27;;;;;;;2.20;2.00;;;7.60;99.90;;;;;;5070921;28;20222;-79
2023/01/08 00:40:53;;;;;;;3.20;2.60;;;8.10;99.90;;;;;;5070294;28;20205;-79
2023/01/08 00:43:19;;;;;;;3.33;2.10;;;7.80;99.90;;;;;;5069063;28;20588;-79
2023/01/08 00:45:44;;;;;;;2.67;2.30;;;7.80;99.90;;;;;;5070428;28;20221;-79
2023/01/08 00:48:10;;;;;;;2.43;2.23;;;7.80;99.90;;;;;;5070012;28;20690;-78
2023/01/08 00:50:35;;;;;;;3.63;2.30;;;7.80;99.90;;;;;;5070256;28;20625;-78
2023/01/08 00:53:02;;;;;;;2.33;2.13;;;7.70;99.90;;;;;;5071293;28;20186;-78
2023/01/08 00:55:28;;;;;;;3.30;2.07;;;7.80;99.90;;;;;;5074622;28;20559;-78
2023/01/08 00:57:53;;;;;;;2.40;2.23;;;7.80;99.90;;;;;;5073887;28;20201;-78
2023/01/08 01:00:19;;;;;;;3.13;2.50;;;7.70;99.90;;;;;;5076098;28;20177;-78
2023/01/08 01:02:45;;;;;;;2.53;2.33;;;7.70;99.90;;;;;;5075300;28;20214;-79
2023/01/08 01:05:14;;;;;;;2.83;2.20;;;7.60;99.90;;;;;;5076117;28;20209;-79
2023/01/08 01:07:41;;;;;;;2.73;2.23;;;7.60;99.90;;;;;;5075139;28;20212;-77
2023/01/08 01:10:07;;;;;;;2.73;2.50;;;7.50;99.90;;;;;;5075920;28;20189;-78
2023/01/08 01:12:33;;;;;;;3.60;2.63;;;7.50;99.90;;;;;;5080220;28;20182;-78
2023/01/08 01:14:58;;;;;;;2.83;2.60;;;7.40;99.90;;;;;;5080063;28;20212;-77
2023/01/08 01:17:24;;;;;;;3.70;2.57;;;7.40;99.90;;;;;;5078892;28;20682;-78
2023/01/08 01:19:50;;;;;;;2.80;2.60;;;7.40;99.90;;;;;;5077785;28;20190;-78
2023/01/08 01:22:15;;;;;;;3.80;2.73;;;7.50;99.90;;;;;;5078300;28;20226;-78
2023/01/08 01:24:41;;;;;;;3.00;2.70;;;7.30;92.30;;;;;;5079004;28;20271;-77
2023/01/08 01:27:06;;;;;;;2.77;2.57;;;7.30;99.90;;;;;;5079818;28;20211;-78
2023/01/08 01:29:32;;;;;;;2.93;2.63;;;7.30;99.90;;;;;;5079588;28;20176;-77
2023/01/08 01:31:57;;;;;;;3.27;2.53;;;7.50;99.90;;;;;;5079137;28;20176;-78
2023/01/08 01:34:23;;;;;;;4.53;2.90;;;7.60;35.90;;;;;;5076313;28;20208;-77
2023/01/08 01:36:49;;;;;;;3.87;2.93;;;7.60;31.50;;;;;;5076224;28;20224;-78
2023/01/08 01:39:14;;;;;;;3.20;2.90;;;7.60;42.70;;;;;;5074414;28;20191;-79
2023/01/08 01:41:45;;;;;;;3.20;2.90;;;7.60;38.50;;;;;;5078422;28;20181;-78
2023/01/08 01:44:32;;;;;;;3.37;2.50;;;7.70;32.00;;;;;;5076501;28;20205;-79
2023/01/08 01:46:59;;;;;;;3.53;2.80;;;7.60;34.20;;;;;;5076608;28;20700;-78
2023/01/08 01:49:26;;;;;;;3.47;2.53;;;7.50;52.70;;;;;;5077995;28;20781;-78
2023/01/08 01:51:54;;;;;;;3.10;2.80;;;7.50;52.40;;;;;;5077097;28;20239;-78
2023/01/08 01:54:21;;;;;;;3.23;2.90;;;7.50;59.60;;;;;;5078798;28;20602;-78
2023/01/08 01:56:47;;;;;;;2.80;2.50;;;7.40;99.90;;;;;;5077272;28;20232;-79
2023/01/08 01:59:12;;;;;;;3.03;2.70;;;7.30;99.90;;;;;;5078086;28;20292;-79
2023/01/08 02:01:40;;;;;;;3.00;2.70;;;7.30;99.90;;;;;;5074995;28;20718;-78
2023/01/08 02:04:07;;;;;;;3.77;2.60;;;7.40;99.90;;;;;;5076193;28;20655;-78
2023/01/08 02:06:58;;;;;;;2.43;2.23;;;7.40;99.90;;;;;;5076423;28;20237;-78
2023/01/08 02:09:48;;;;;;;2.87;2.53;;;8.50;99.90;;;;;;5077974;28;20186;-78
2023/01/08 02:12:38;;;;;;;3.30;2.80;;;7.20;99.90;;;;;;5077455;28;20170;-77
2023/01/08 02:15:20;;;;;;;3.50;3.17;;;7.30;78.70;;;;;;5077261;28;20186;-77
2023/01/08 02:18:07;;;;;;;3.10;2.80;;;7.40;74.30;;;;;;5076144;28;20212;-78
2023/01/08 02:20:50;;;;;;;3.30;3.00;;;7.30;99.90;;;;;;5074982;28;20196;-79
2023/01/08 02:23:27;;;;;;;3.23;2.87;;;7.40;99.90;;;;;;5077372;28;20345;-78
2023/01/08 02:25:55;;;;;;;3.27;2.97;;;7.30;99.90;;;;;;5077342;28;20203;-77
2023/01/08 02:28:21;;;;;;;3.13;2.83;;;7.30;93.00;;;;;;5077100;28;20205;-78
2023/01/08 02:30:48;;;;;;;4.03;3.30;;;7.90;94.00;;;;;;5076139;28;20181;-77
2023/01/08 02:33:14;;;;;;;3.60;3.17;;;7.30;91.80;;;;;;5077332;28;20181;-78
2023/01/08 02:35:44;;;;;;;3.13;2.83;;;7.40;92.70;;;;;;5076233;28;20457;-78
2023/01/08 02:38:13;;;;;;;3.43;2.90;;;7.50;90.20;;;;;;5072993;28;20232;-79
2023/01/08 02:40:55;;;;;;;3.63;2.90;;;7.60;90.80;;;;;;5072482;28;20177;-79
2023/01/08 02:43:31;;;;;;;3.13;2.80;;;7.60;80.10;;;;;;5071645;28;20209;-79
2023/01/08 02:46:00;;;;;;;5.13;3.03;;;7.70;77.20;;;;;;5070710;28;20212;-79
2023/01/08 02:48:39;;;;;;;3.13;2.83;;;7.80;65.60;;;;;;5071789;28;20201;-77
2023/01/08 02:51:13;;;;;;;3.20;2.90;;;7.90;64.70;;;;;;5071370;28;20655;-79
2023/01/08 02:53:43;;;;;;;4.10;2.93;;;7.90;56.60;;;;;;5068451;28;20181;-79
2023/01/08 02:56:13;;;;;;;3.10;2.63;;;8.00;53.30;;;;;;5067172;28;20923;-79
2023/01/08 02:58:45;;;;;;;3.87;3.13;;;8.00;50.30;;;;;;5069701;28;20272;-78
2023/01/08 03:01:12;;;;;;;3.30;3.00;;;8.00;45.30;;;;;;5071355;28;20185;-78
2023/01/08 03:03:40;;;;;;;3.17;2.90;;;8.00;45.90;;;;;;5070640;28;20651;-79
2023/01/08 03:06:16;;;;;;;3.17;2.70;;;7.90;49.70;;;;;;5069898;28;20699;-79
2023/01/08 03:08:44;;;;;;;3.30;2.97;;;7.80;58.20;;;;;;5070646;28;20216;-78
2023/01/08 03:11:12;;;;;;;3.10;2.80;;;7.90;63.50;;;;;;5071590;28;20191;-78
2023/01/08 03:13:56;;;;;;;3.23;2.93;;;7.90;99.90;;;;;;5072508;28;20241;-79
2023/01/08 03:16:54;;;;;;;3.30;2.70;;;8.00;99.90;;;;;;5074357;28;20188;-79
2023/01/08 03:19:42;;;;;;;3.17;2.87;;;8.00;99.90;;;;;;5064779;28;20201;-79
2023/01/08 03:22:12;;;;;;;3.10;2.80;;;9.20;67.40;;;;;;5066648;28;20201;-79
2023/01/08 03:24:39;;;;;;;3.13;2.83;;;8.10;94.10;;;;;;5071955;28;20187;-79
2023/01/08 03:27:11;;;;;;;3.50;2.60;;;8.40;40.80;;;;;;5072127;28;21053;-78
2023/01/08 03:29:39;;;;;;;3.47;2.40;;;8.50;32.20;;;;;;5072290;28;20172;-79
2023/01/08 03:32:10;;;;;;;3.00;2.70;;;8.30;25.50;;;;;;5070750;28;20671;-79
2023/01/08 03:34:39;;;;;;;3.00;2.40;;;8.80;18.60;;;;;;5070584;28;20273;-79
2023/01/08 03:37:07;;;;;;;2.70;2.47;;;8.90;13.20;;;;;;5069883;28;20216;-79
2023/01/08 03:39:57;;;;;;;3.00;2.70;;;8.90;11.60;;;;;;5069396;28;20182;-78
2023/01/08 03:42:24;;;;;;;3.17;2.87;;;9.00;15.80;;;;;;5066048;28;20193;-78
2023/01/08 03:44:50;;;;;;;2.80;2.60;;;10.50;26.20;;;;;;5067247;28;20213;-78
2023/01/08 03:47:19;;;;;;;3.23;2.60;;;9.00;31.30;;;;;;5067945;28;20215;-79
2023/01/08 03:49:46;;;;;;;3.00;2.47;;;9.10;86.10;;;;;;5071757;28;20576;-79
2023/01/08 03:52:26;;;;;;;3.27;2.60;;;9.10;99.90;;;;;;5072136;28;20184;-79
2023/01/08 03:54:52;;;;;;;2.77;2.57;;;9.20;99.90;;;;;;5071134;28;20182;-79
2023/01/08 03:57:18;;;;;;;3.07;2.70;;;9.10;99.90;;;;;;5069380;28;20213;-79
2023/01/08 03:59:44;;;;;;;2.83;2.40;;;9.10;99.90;;;;;;5071706;28;20186;-78
2023/01/08 04:02:09;;;;;;;2.70;2.50;;;9.00;91.50;;;;;;5073241;28;20190;-79
2023/01/08 04:04:35;;;;;;;2.47;2.27;;;8.90;30.60;;;;;;5072338;28;20239;-79
2023/01/08 04:07:01;;;;;;;3.17;2.50;;;9.10;8.80;;;;;;5068639;28;20320;-79
2023/01/08 04:09:26;;;;;;;2.70;2.50;;;9.10;5.00;;;;;;5072059;28;20643;-79
2023/01/08 04:11:52;;;;;;;2.73;2.50;;;9.80;5.60;;;;;;5072695;28;20432;-79
2023/01/08 04:14:18;;;;;;;2.87;2.30;;;9.20;5.20;;;;;;5071991;28;20265;-79
2023/01/08 04:16:44;;;;;;;2.30;2.10;;;9.20;5.40;;;;;;5071827;28;20217;-78
2023/01/08 04:19:13;;;;;;;2.63;2.43;;;9.20;5.20;;;;;;5075423;28;20279;-79
2023/01/08 04:21:39;;;;;;;2.70;2.23;;;9.10;6.20;;;;;;5072122;28;20544;-79
2023/01/08 04:24:05;;;;;;;2.50;2.27;;;9.20;2.10;;;;;;5075253;28;20196;-79
2023/01/08 04:26:30;;;;;;;2.37;2.17;;;9.30;2.80;;;;;;5072197;28;20236;-79
2023/01/08 04:28:56;;;;;;;2.50;2.30;;;9.30;1.60;;;;;;5076635;28;20206;-79
2023/01/08 04:31:22;;;;;;;2.70;2.10;;;9.30;1.70;;;;;;5077028;28;20185;-79
2023/01/08 04:33:48;;;;;;;2.77;2.57;;;9.20;2.70;;;;;;5079021;28;20177;-79
2023/01/08 04:36:13;;;;;;;2.60;2.40;;;9.10;5.20;;;;;;5077182;28;20256;-79
2023/01/08 04:38:39;;;;;;;2.30;2.10;;;9.10;8.80;;;;;;5077394;28;20212;-79
2023/01/08 04:41:04;;;;;;;3.30;2.33;;;9.10;7.80;;;;;;5081566;28;20205;-79
2023/01/08 04:43:31;;;;;;;2.87;2.40;;;9.00;12.90;;;;;;5080323;28;20185;-79
2023/01/08 04:46:01;;;;;;;2.63;2.33;;;8.90;19.90;;;;;;5079578;28;20210;-79
2023/01/08 04:48:27;;;;;;;2.87;2.20;;;8.80;21.70;;;;;;5080920;28;20201;-79
2023/01/08 04:50:53;;;;;;;2.40;2.20;;;8.50;58.60;;;;;;5081360;28;20177;-79
2023/01/08 04:53:19;;;;;;;2.63;2.43;;;8.60;99.90;;;;;;5080424;28;20215;-79
2023/01/08 04:55:44;;;;;;;2.37;2.17;;;8.60;99.90;;;;;;5074125;28;20201;-79
2023/01/08 04:58:10;;;;;;;4.43;2.60;;;8.40;99.90;;;;;;5074830;28;20221;-79
2023/01/08 05:00:38;;;;;;;2.40;2.10;;;8.40;99.90;;;;;;5074331;28;20181;-80
2023/01/08 05:03:04;;;;;;;2.93;2.73;;;8.40;99.90;;;;;;5075511;28;20185;-79
2023/01/08 05:05:30;;;;;;;2.83;2.37;;;8.40;99.90;;;;;;5075447;28;20204;-79
2023/01/08 05:07:55;;;;;;;2.63;2.43;;;8.50;99.90;;;;;;5076167;28;20202;-79
2023/01/08 05:10:21;;;;;;;2.90;2.63;;;8.40;71.30;;;;;;5076148;28;20193;-79
2023/01/08 05:12:46;;;;;;;2.87;2.10;;;8.30;99.90;;;;;;5075194;28;20186;-78
2023/01/08 05:15:12;;;;;;;2.33;2.13;;;10.70;72.60;;;;;;5075700;28;20193;-79
2023/01/08 05:17:37;;;;;;;2.50;2.30;;;8.40;66.00;;;;;;5075783;28;20213;-79
2023/01/08 05:20:03;;;;;;;3.43;2.20;;;8.40;71.10;;;;;;5074836;28;20204;-79
2023/01/08 05:22:29;;;;;;;2.60;2.40;;;8.40;74.10;;;;;;5073894;28;20277;-79
2023/01/08 05:24:54;;;;;;;2.30;2.10;;;8.60;61.00;;;;;;5075866;28;20213;-78
2023/01/08 05:27:20;;;;;;;3.13;2.40;;;8.70;51.80;;;;;;5074183;28;20227;-79
2023/01/08 05:29:45;;;;;;;2.37;2.17;;;8.80;45.30;;;;;;5075307;28;20712;-79
2023/01/08 05:32:17;;;;;;;2.37;2.17;;;8.90;36.40;;;;;;5075920;28;20182;-79
2023/01/08 05:34:43;;;;;;;2.27;2.07;;;8.80;38.60;;;;;;5074745;28;20182;-79
2023/01/08 05:37:09;;;;;;;2.20;1.90;;;8.90;33.30;;;;;;5073874;28;20202;-79
2023/01/08 05:39:35;;;;;;;3.43;2.27;;;8.90;39.60;;;;;;5073322;28;20177;-79
2023/01/08 05:42:01;;;;;;;2.70;2.30;;;8.90;33.20;;;;;;5074734;28;20212;-79
2023/01/08 05:44:26;;;;;;;3.57;2.77;;;8.90;33.00;;;;;;5075831;28;20231;-79
2023/01/08 05:46:52;;;;;;;2.03;1.77;;;8.90;30.80;;;;;;5074870;28;20201;-79
2023/01/08 05:49:18;;;;;;;2.33;2.00;;;9.00;28.10;;;;;;5073972;28;20178;-79
2023/01/08 05:51:44;;;;;;;2.37;2.13;;;9.10;21.60;;;;;;5072868;28;20182;-79
2023/01/08 05:54:09;;;;;;;2.30;2.10;;;9.10;23.50;;;;;;5071217;28;20216;-80
2023/01/08 05:56:35;;;;;;;3.07;2.20;;;8.90;25.50;;;;;;5068799;28;20212;-79
2023/01/08 05:59:00;;;;;;;3.30;2.27;;;8.90;35.30;;;;;;5072801;28;20192;-79
2023/01/08 06:01:26;;;;;;;2.00;1.80;;;8.70;28.60;;;;;;5072685;28;20194;-79
2023/01/08 06:03:55;;;;;;;2.40;2.20;;;9.00;94.80;;;;;;5072809;28;20182;-79
2023/01/08 06:06:21;;;;;;;2.33;2.13;;;9.00;99.90;;;;;;5074532;28;20702;-79
2023/01/08 06:08:46;;;;;;;1.97;1.87;;;8.90;99.90;;;;;;5073417;28;20207;-79
2023/01/08 06:11:12;;;;;;;2.30;2.10;;;8.90;99.90;;;;;;5071428;28;20197;-79
2023/01/08 06:13:41;;;;;;;2.63;2.00;;;8.80;99.90;;;;;;5072887;28;20224;-79
2023/01/08 06:16:07;;;;;;;2.30;2.10;;;8.90;99.90;;;;;;5073094;28;20225;-79
2023/01/08 06:18:32;;;;;;;2.40;2.20;;;8.90;99.90;;;;;;5072415;28;20675;-79
2023/01/08 06:20:58;;;;;;;2.27;2.07;;;8.80;99.90;;;;;;5073104;28;20197;-79
2023/01/08 06:23:24;;;;;;;2.40;2.20;;;9.00;99.90;;;;;;5072980;28;20242;-79
2023/01/08 06:25:58;;;;;;;2.70;2.50;;;9.00;99.90;;;;;;5072827;28;20320;-78
2023/01/08 06:28:24;;;;;;;3.30;2.20;;;8.90;99.90;;;;;;5073196;28;20209;-79
2023/01/08 06:30:50;;;;;;;3.03;2.67;;;8.70;70.80;;;;;;5071469;28;20181;-79
2023/01/08 06:33:16;;;;;;;2.97;2.70;;;8.70;92.90;;;;;;5072563;28;20213;-79
2023/01/08 06:35:42;;;;;;;2.73;2.50;;;8.80;99.90;;;;;;5072549;28;20178;-79
2023/01/08 06:38:07;;;;;;;3.57;3.23;;;8.80;99.90;;;;;;5072530;28;20695;-79
2023/01/08 06:40:33;;;;;;;3.60;3.30;;;8.70;99.90;;;;;;5072513;28;20189;-79
2023/01/08 06:43:04;;;;;;;3.30;3.00;;;8.90;94.50;;;;;;5072256;28;20193;-79
2023/01/08 06:45:30;;;;;;;3.50;3.20;;;8.80;99.90;;;;;;5070907;28;20671;-80
2023/01/08 06:48:00;;;;;;;3.70;3.27;;;8.80;99.90;;;;;;5069709;28;20315;-79
2023/01/08 06:50:26;;;;;;;3.63;3.33;;;8.70;99.90;;;;;;5071142;28;20180;-79
2023/01/08 06:52:53;;;;;;;3.43;2.90;;;8.70;99.90;;;;;;5071460;28;20177;-79
2023/01/08 06:55:20;;;;;;;3.23;2.97;;;8.70;99.90;;;;;;5070380;28;20812;-79
2023/01/08 06:57:45;;;;;;;3.73;3.10;;;8.80;99.90;;;;;;5066276;28;20229;-78
2023/01/08 07:00:11;;;;;;;3.33;3.03;;;8.90;99.90;;;;;;5065971;28;20221;-78
2023/01/08 07:02:37;;;;;;;3.23;2.90;;;8.80;99.90;;;;;;5065461;28;20192;-79
2023/01/08 07:05:03;;;;;;;3.27;2.97;;;8.90;99.90;;;;;;5071082;28;20232;-79
2023/01/08 07:07:28;;;;;;;4.40;3.60;;;8.90;99.90;;;;;;5071016;28;20674;-79
2023/01/08 07:09:54;;;;;;;3.03;2.80;;;8.80;99.90;;;;;;5071031;28;20186;-78
2023/01/08 07:12:19;;;;;;;3.20;2.90;;;8.80;99.90;;;;;;5073198;28;20185;-79
2023/01/08 07:14:45;;;;;;;2.80;2.60;;;8.70;99.90;;;;;;5073711;28;20688;-79
2023/01/08 07:17:10;;;;;;;4.43;3.23;;;8.70;99.90;;;;;;5073310;28;20696;-80
2023/01/08 07:19:36;;;;;;;3.83;3.53;;;8.70;99.90;;;;;;5076784;28;20199;-80
2023/01/08 07:22:02;;;;;;;3.67;3.37;;;8.70;99.90;;;;;;5075647;28;20241;-79
2023/01/08 07:24:28;;;;;;;4.00;3.70;;;8.70;99.90;;;;;;5077557;28;20180;-80
2023/01/08 07:26:53;;;;;;;4.50;4.07;;;8.70;99.90;;;;;;5075565;28;20276;-79
2023/01/08 07:29:19;;;;;;;4.73;3.63;;;8.70;99.90;;;;;;5075903;28;20189;-80
2023/01/08 07:31:44;;;;;;;3.77;3.37;;;9.10;99.90;;;;;;5077218;28;20192;-80
2023/01/08 07:34:10;;;;;;;4.10;3.67;;;8.80;99.90;;;;;;5076056;28;20197;-79
2023/01/08 07:36:35;;;;;;;4.23;3.83;;;8.60;99.90;;;;;;5075284;28;20177;-79
2023/01/08 07:39:01;;;;;;;4.23;3.83;;;8.70;99.90;;;;;;5075811;28;20192;-80
2023/01/08 07:41:26;;;;;;;4.73;4.03;;;8.60;99.90;;;;;;5076437;28;20463;-78
2023/01/08 07:43:52;;;;;;;4.30;3.90;;;8.60;99.90;;;;;;5075894;28;20248;-80
2023/01/08 07:46:18;;;;;;;3.83;3.40;;;8.50;99.90;;;;;;5072934;28;20201;-79
2023/01/08 07:48:43;;;;;;;3.57;3.27;;;8.60;99.90;;;;;;5072823;28;20201;-79
2023/01/08 07:51:09;;;;;;;4.83;3.60;;;8.60;1.00;;;;;;5072590;28;20188;-80
2023/01/08 07:53:35;;;;;;;5.07;3.50;;;8.50;1.00;;;;;;5072551;28;20643;-78
2023/01/08 07:56:03;;;;;;;4.20;3.80;;;8.70;1.00;;;;;;5070530;28;20724;-79
2023/01/08 07:58:29;;;;;;;7.97;3.90;;;9.20;1.00;;;;;;5063947;28;20210;-78
2023/01/08 08:00:57;;;;;;;3.60;3.30;;;7.40;1.00;;;;;;5070007;28;20261;-78
2023/01/08 08:03:23;;;;;;;3.50;3.20;;;8.50;1.00;;;;;;5071305;28;20212;-77
2023/01/08 08:05:49;;;;;;;3.40;3.10;;;8.20;1.00;;;;;;5072282;28;20963;-78
2023/01/08 08:08:18;;;;;;;3.97;3.50;;;8.50;1.00;;;;;;5073169;28;20217;-80
2023/01/08 08:10:44;;;;;;;3.00;2.80;;;8.50;99.90;;;;;;5073569;28;20196;-78
2023/01/08 08:13:10;;;;;;;3.00;2.73;;;8.50;99.90;;;;;;5072514;28;20181;-77
2023/01/08 08:15:37;;;;;;;3.10;2.80;;;8.40;99.90;;;;;;5074236;28;20181;-78
2023/01/08 08:18:03;;;;;;;3.20;2.90;;;8.30;1.00;;;;;;5069046;28;20236;-79
2023/01/08 08:20:29;;;;;;;3.57;3.27;;;8.10;1.00;;;;;;5073532;28;20264;-78
2023/01/08 08:23:06;;;;;;;3.03;2.80;;;8.40;1.00;;;;;;5072643;28;20201;-78
2023/01/08 08:25:31;;;;;;;4.57;3.40;;;8.40;99.90;;;;;;5074588;28;20212;-78
2023/01/08 08:27:58;;;;;;;3.80;3.43;;;8.20;99.90;;;;;;5071493;28;20197;-79
2023/01/08 08:30:25;;;;;;;4.00;3.60;;;8.20;1.00;;;;;;5068305;28;20190;-78
2023/01/08 08:32:52;;;;;;;3.27;2.97;;;8.10;1.00;;;;;;5072617;28;20260;-78
2023/01/08 08:35:17;;;;;;;3.80;3.50;;;8.10;99.90;;;;;;5068963;28;20543;-78
2023/01/08 08:37:43;;;;;;;3.83;3.53;;;8.00;99.90;;;;;;5066230;28;20208;-80
2023/01/08 08:40:09;;;;;;;3.90;3.13;;;8.10;99.90;;;;;;5069466;28;20193;-78
2023/01/08 08:42:34;;;;;;;3.40;3.10;;;8.00;99.90;;;;;;5073306;28;20209;-77
2023/01/08 08:45:00;;;;;;;4.23;3.33;;;8.10;99.90;;;;;;5068876;28;20221;-79
2023/01/08 08:47:25;;;;;;;3.80;3.50;;;8.10;1.00;;;;;;5068957;28;20744;-78
2023/01/08 08:49:51;;;;;;;3.43;3.13;;;8.00;1.00;;;;;;5062496;28;20255;-78
2023/01/08 08:52:17;;;;;;;3.53;3.23;;;8.10;1.00;;;;;;5073357;28;21168;-78
2023/01/08 08:54:42;;;;;;;3.50;3.20;;;8.10;1.00;;;;;;5068976;28;20189;-80
2023/01/08 08:57:09;;;;;;;3.27;3.00;;;8.10;1.00;;;;;;5069383;28;20263;-78
2023/01/08 08:59:34;;;;;;;3.50;3.20;;;8.10;1.00;;;;;;5068880;28;20193;-82
2023/01/08 09:02:00;;;;;;;3.23;2.93;;;8.10;1.00;;;;;;5062525;28;20206;-83
2023/01/08 09:04:29;;;;;;;3.87;3.00;;;8.10;1.00;;;;;;5066838;28;20189;-79
2023/01/08 09:06:55;;;;;;;3.10;2.80;;;8.10;1.00;;;;;;5065747;28;20630;-78
2023/01/08 09:09:20;;;;;;;3.10;2.80;;;8.50;1.00;;;;;;5064266;28;20264;-80
2023/01/08 09:11:46;;;;;;;3.50;3.03;;;9.20;1.00;;;;;;5065390;28;20192;-79
2023/01/08 09:14:12;;;;;;;3.53;3.20;;;8.30;1.00;;;;;;5066080;28;20181;-79
2023/01/08 09:16:37;;;;;;;3.17;2.87;;;8.40;1.00;;;;;;5067899;28;20181;-79
2023/01/08 09:19:04;;;;;;;3.13;2.90;;;8.30;1.00;;;;;;5067661;28;20701;-78
2023/01/08 09:21:30;;;;;;;2.97;2.77;;;8.40;99.90;;;;;;5066128;28;20186;-79
2023/01/08 09:23:55;;;;;;;3.30;3.00;;;8.40;74.10;;;;;;5068986;28;20192;-79
2023/01/08 09:26:21;;;;;;;3.13;2.87;;;8.50;38.40;;;;;;5068461;28;20216;-79
2023/01/08 09:28:47;;;;;;;3.53;2.60;;;8.60;1.00;;;;;;5068963;28;20206;-79
2023/01/08 09:31:13;;;;;;;2.90;2.60;;;8.60;1.00;;;;;;5069847;28;20196;-79
2023/01/08 09:33:38;;;;;;;2.53;2.13;;;8.60;99.90;;;;;;5072199;28;20185;-77
2023/01/08 09:36:08;;;;;;;4.97;3.73;;;8.60;99.90;;;;;;5072699;28;20266;-81
2023/01/08 09:38:34;;;;;;;4.03;3.30;;;9.10;1.00;;;;;;5074923;28;21451;-79
2023/01/08 09:41:07;;;;;;;5.33;4.83;;;8.70;1.00;;;;;;5069450;28;20209;-79
2023/01/08 09:43:36;;;;;;;5.57;5.00;;;8.70;1.00;;;;;;5069615;28;20217;-79
2023/01/08 09:46:05;;;;;;;5.40;4.57;;;8.50;99.90;;;;;;5065930;28;20225;-80
2023/01/08 09:48:35;;;;;;;5.20;4.40;;;8.50;99.90;;;;;;5065180;28;20198;-79
2023/01/08 09:51:01;;;;;;;3.00;2.77;;;8.40;1.00;;;;;;5062338;28;20189;-81
2023/01/08 09:53:28;;;;;;;2.70;2.50;;;8.90;1.00;;;;;;5063123;28;20226;-81
2023/01/08 09:56:09;;;;;;;2.60;2.40;;;8.50;99.90;;;;;;5063790;28;20190;-80
2023/01/08 09:58:42;;;;;;;2.30;2.13;;;8.70;99.90;;;;;;5063507;28;20210;-80
2023/01/08 10:01:12;;;;;;;2.67;2.03;;;8.70;99.50;;;;;;5062396;28;20658;-79
2023/01/08 10:04:03;;;;;;;1.33;1.23;;;8.40;1.00;;;;;;5059998;28;20186;-78
2023/01/08 10:06:30;;;;;;;1.97;1.77;;;8.50;1.00;;;;;;5057998;28;20228;-79
2023/01/08 10:08:55;;;;;;;2.03;1.70;;;8.80;99.90;;;;;;5053889;28;20219;-80
2023/01/08 10:11:22;;;;;;;1.47;1.37;;;8.60;99.90;;;;;;5056170;28;20189;-79
2023/01/08 10:13:52;;;;;;;1.70;1.47;;;8.60;70.40;;;;;;5058468;28;20341;-78
2023/01/08 10:16:32;;;;;;;2.50;1.50;;;8.80;1.00;;;;;;5066084;28;20189;-78
2023/01/08 10:18:58;;;;;;;1.27;1.17;;;8.70;82.90;;;;;;5053696;28;20250;-79
2023/01/08 10:21:44;;;;;;;1.70;1.60;;;8.80;1.00;;;;;;5063058;28;20212;-79
2023/01/08 10:24:10;;;;;;;2.27;1.87;;;8.70;1.00;;;;;;5062522;28;20267;-79
2023/01/08 10:26:38;;;;;;;1.20;1.10;;;8.50;1.00;;;;;;5058796;28;20209;-79
2023/01/08 10:29:10;;;;;;;1.33;1.23;;;8.60;1.00;;;;;;5060729;28;20730;-80
2023/01/08 10:31:46;;;;;;;1.90;1.10;;;8.80;34.30;;;;;;5059456;28;20589;-80
2023/01/08 10:34:31;;;;;;;1.23;1.13;;;9.10;17.30;;;;;;5066662;28;20236;-81
2023/01/08 10:36:56;;;;;;;1.30;1.20;;;8.90;1.00;;;;;;5063812;28;20871;-81
2023/01/08 10:39:27;;;;;;;1.80;1.10;;;8.80;1.00;;;;;;5066136;28;20188;-80
2023/01/08 10:41:57;;;;;;;1.47;1.10;;;8.90;1.00;;;;;;5063311;28;20206;-80
2023/01/08 10:44:24;;;;;;;1.17;1.07;;;8.80;1.00;;;;;;5059483;28;20199;-78
2023/01/08 10:46:54;;;;;;;1.30;1.20;;;8.80;1.00;;;;;;5060834;28;20219;-78
2023/01/08 10:49:20;;;;;;;0.93;0.93;;;8.90;1.00;;;;;;5064980;28;20261;-79
2023/01/08 10:51:52;;;;;;;1.10;1.00;;;8.90;1.00;;;;;;5067129;28;20782;-79
2023/01/08 10:54:30;;;;;;;1.07;0.87;;;8.80;1.00;;;;;;5067150;28;20178;-79
2023/01/08 10:56:55;;;;;;;1.30;1.20;;;8.90;1.00;;;;;;5064646;28;20239;-79
2023/01/08 10:59:22;;;;;;;1.23;1.13;;;8.80;1.00;;;;;;5065622;28;20221;-80
2023/01/08 11:01:50;;;;;;;1.13;1.03;;;8.70;1.00;;;;;;5064282;28;20193;-80
2023/01/08 11:04:21;;;;;;;1.10;1.00;;;8.70;1.00;;;;;;5068817;28;20219;-82
2023/01/08 11:06:47;;;;;;;0.90;0.90;;;9.60;99.90;;;;;;5065747;28;20206;-79
2023/01/08 11:09:21;;;;;;;1.20;1.10;;;8.90;1.00;;;;;;5064123;28;20262;-80
2023/01/08 11:11:47;;;;;;;0.87;0.87;;;9.00;1.00;;;;;;5063930;28;20193;-80
2023/01/08 11:14:30;;;;;;;1.20;1.10;;;8.90;1.00;;;;;;5063953;28;20235;-80
2023/01/08 11:16:57;;;;;;;1.10;1.00;;;9.00;1.00;;;;;;5063218;28;20296;-80
2023/01/08 11:19:29;;;;;;;1.07;0.97;;;9.00;99.90;;;;;;5065576;28;20186;-80
2023/01/08 11:21:59;;;;;;;1.00;1.00;;;8.90;99.90;;;;;;5066221;28;20190;-80
2023/01/08 11:24:31;;;;;;;1.23;0.93;;;9.00;99.90;;;;;;5068465;28;20200;-80
2023/01/08 11:27:14;;;;;;;1.00;0.90;;;8.90;99.90;;;;;;5067298;28;20233;-80
2023/01/08 11:30:03;;;;;;;1.20;1.10;;;9.00;99.90;;;;;;5066341;28;20311;-79
2023/01/08 11:32:38;;;;;;;0.90;0.90;;;9.00;99.90;;;;;;5064714;28;20186;-79
2023/01/08 11:35:23;;;;;;;1.40;1.00;;;9.00;99.90;;;;;;5066264;28;20641;-80
2023/01/08 11:37:57;;;;;;;1.10;1.10;;;9.00;99.90;;;;;;5065925;28;20236;-79
2023/01/08 11:40:56;;;;;;;1.37;1.27;;;10.00;99.90;;;;;;5064829;28;20194;-80
2023/01/08 11:44:09;;;;;;;1.07;0.97;;;9.00;99.90;;;;;;5065815;28;20189;-79
2023/01/08 11:47:18;;;;;;;1.10;1.00;;;9.00;99.90;;;;;;5055428;28;20290;-79
2023/01/08 11:50:00;;;;;;;0.90;0.80;;;9.00;99.90;;;;;;5023554;28;20811;-78
2023/01/08 11:52:44;;;;;;;1.30;1.20;;;9.10;99.90;;;;;;5006580;28;20211;-79
2023/01/08 11:55:34;;;;;;;1.00;0.70;;;9.10;99.90;;;;;;5065403;28;20671;-77
2023/01/08 11:58:38;;;;;;;1.03;0.93;;;9.20;99.90;;;;;;5066678;28;20216;-79
2023/01/08 12:01:22;;;;;;;0.70;0.70;;;9.20;99.90;;;;;;5037492;28;20283;-79
2023/01/08 12:04:06;;;;;;;0.83;0.80;;;9.20;99.90;;;;;;5067352;28;20181;-77
2023/01/08 12:06:46;;;;;;;1.00;0.90;;;9.30;99.90;;;;;;5065314;28;20581;-78
2023/01/08 12:09:32;;;;;;;1.20;1.10;;;9.30;99.90;;;;;;5063684;28;20254;-77
2023/01/08 12:12:10;;;;;;;1.63;1.37;;;9.00;99.90;;;;;;5064170;28;20185;-81
2023/01/08 12:14:59;;;;;;;1.37;1.10;;;9.40;99.90;;;;;;5059147;28;20181;-79
2023/01/08 12:17:38;;;;;;;1.53;1.40;;;9.30;99.90;;;;;;5061198;28;20226;-80
2023/01/08 12:20:31;;;;;;;1.63;1.40;;;9.30;99.90;;;;;;5061466;28;20193;-81
2023/01/08 12:23:34;;;;;;;1.53;1.10;;;9.30;99.90;;;;;;5061080;28;20193;-79
2023/01/08 12:26:20;;;;;;;1.30;0.90;;;9.00;99.90;;;;;;5061497;28;20713;-83
2023/01/08 12:29:23;;;;;;;1.20;1.10;;;9.30;99.90;;;;;;5061494;28;20232;-82
2023/01/08 12:31:52;;;;;;;1.20;1.10;;;9.40;99.90;;;;;;5059529;28;20196;-78
2023/01/08 12:34:29;;;;;;;1.10;1.00;;;9.30;99.90;;;;;;5065463;28;20192;-81
2023/01/08 12:37:13;;;;;;;2.60;2.00;;;10.90;99.90;;;;;;5058426;28;20231;-79
2023/01/08 12:40:05;;;;;;;2.43;1.80;;;9.40;99.90;;;;;;5060792;28;20186;-79
2023/01/08 12:42:33;;;;;;;1.90;1.40;;;9.10;99.90;;;;;;5054107;28;20213;-79
2023/01/08 12:45:01;;;;;;;2.83;1.60;;;9.40;99.90;;;;;;5063517;28;20197;-80
2023/01/08 12:47:31;;;;;;;1.77;1.10;;;9.30;99.90;;;;;;5055336;28;20297;-80
2023/01/08 12:50:26;;;;;;;1.10;1.00;;;9.40;99.90;;;;;;5060938;28;20186;-79
2023/01/08 12:52:54;;;;;;;1.03;1.00;;;9.40;99.90;;;;;;5064812;28;20184;-79
2023/01/08 12:55:32;;;;;;;0.90;0.90;;;9.40;99.90;;;;;;5065643;28;20181;-80
2023/01/08 12:58:27;;;;;;;2.47;0.90;;;9.40;99.90;;;;;;5065750;28;20201;-79
2023/01/08 13:01:08;;;;;;;0.93;0.83;;;9.50;99.90;;;;;;5066252;28;20182;-79
2023/01/08 13:03:35;;;;;;;1.00;0.90;;;9.50;99.90;;;;;;5068895;28;20209;-80
2023/01/08 13:06:13;;;;;;;0.87;0.73;;;9.50;99.90;;;;;;5067408;28;20237;-80
2023/01/08 13:08:43;;;;;;;1.20;0.93;;;9.50;99.90;;;;;;5066838;28;20602;-79
2023/01/08 13:11:09;;;;;;;1.50;0.97;;;9.20;99.90;;;;;;5067129;28;20185;-80
2023/01/08 13:13:43;;;;;;;1.17;1.00;;;9.40;99.90;;;;;;5077563;28;20190;-78
2023/01/08 13:16:18;;;;;;;2.83;0.80;;;9.50;99.90;;;;;;5072033;28;20182;-79